sensor_id;sensor_type;location;lat;lon;timestamp;pressure;altitude;pressure_sealevel;temperature;humidity
55410;BME280;41279;43.546;16.426;2022-11-25T00:01:15;52496.41;;;-146.77;78.21
55410;BME280;41279;43.546;16.426;2022-11-25T00:03:42;52480.38;;;-146.77;76.87
55410;BME280;41279;43.546;16.426;2022-11-25T00:06:12;52474.38;;;-146.77;77.76
55410;BME280;41279;43.546;16.426;2022-11-25T00:08:38;52504.41;;;-146.77;78.15
55410;BME280;41279;43.546;16.426;2022-11-25T00:11:05;52486.41;;;-146.77;78.05
55410;BME280;41279;43.546;16.426;2022-11-25T00:13:31;52486.41;;;-146.77;77.04
55410;BME280;41279;43.546;16.426;2022-11-25T00:16:08;52486.41;;;-146.77;77.80
55410;BME280;41279;43.546;16.426;2022-11-25T00:18:34;52496.41;;;-146.77;75.11
55410;BME280;41279;43.546;16.426;2022-11-25T00:21:07;52486.41;;;-146.77;73.66
55410;BME280;41279;43.546;16.426;2022-11-25T00:23:33;52496.41;;;-146.77;76.78
55410;BME280;41279;43.546;16.426;2022-11-25T00:26:15;52518.44;;;-146.77;77.05
55410;BME280;41279;43.546;16.426;2022-11-25T00:28:43;52496.41;;;-146.77;74.26
55410;BME280;41279;43.546;16.426;2022-11-25T00:31:13;52486.41;;;-146.77;73.09
55410;BME280;41279;43.546;16.426;2022-11-25T00:33:39;52456.38;;;-146.77;71.87
55410;BME280;41279;43.546;16.426;2022-11-25T00:36:06;52474.38;;;-146.77;71.81
55410;BME280;41279;43.546;16.426;2022-11-25T00:38:32;52470.38;;;-146.77;70.70
55410;BME280;41279;43.546;16.426;2022-11-25T00:40:58;52494.41;;;-146.77;71.33
55410;BME280;41279;43.546;16.426;2022-11-25T00:43:42;52472.38;;;-146.77;72.18
55410;BME280;41279;43.546;16.426;2022-11-25T00:46:25;52502.41;;;-146.77;72.80
55410;BME280;41279;43.546;16.426;2022-11-25T00:48:51;52474.38;;;-146.77;74.31
55410;BME280;41279;43.546;16.426;2022-11-25T00:51:16;52474.38;;;-146.77;74.87
55410;BME280;41279;43.546;16.426;2022-11-25T00:53:42;52464.38;;;-146.77;74.82
55410;BME280;41279;43.546;16.426;2022-11-25T00:56:07;52478.38;;;-146.77;75.49
55410;BME280;41279;43.546;16.426;2022-11-25T00:58:43;52462.38;;;-146.77;74.12
55410;BME280;41279;43.546;16.426;2022-11-25T01:01:10;52456.38;;;-146.77;73.72
55410;BME280;41279;43.546;16.426;2022-11-25T01:03:35;52472.38;;;-146.77;75.05
55410;BME280;41279;43.546;16.426;2022-11-25T01:06:08;52496.41;;;-146.77;75.33
55410;BME280;41279;43.546;16.426;2022-11-25T01:08:40;52478.38;;;-146.77;75.06
55410;BME280;41279;43.546;16.426;2022-11-25T01:11:08;52458.38;;;-146.77;74.54
55410;BME280;41279;43.546;16.426;2022-11-25T01:13:34;52476.38;;;-146.77;73.95
55410;BME280;41279;43.546;16.426;2022-11-25T01:16:03;52450.34;;;-146.77;71.95
55410;BME280;41279;43.546;16.426;2022-11-25T01:18:35;52458.38;;;-146.77;71.52
55410;BME280;41279;43.546;16.426;2022-11-25T01:21:09;52494.41;;;-146.77;72.31
55410;BME280;41279;43.546;16.426;2022-11-25T01:23:35;52478.38;;;-146.77;75.32
55410;BME280;41279;43.546;16.426;2022-11-25T01:26:05;52458.38;;;-146.77;74.62
55410;BME280;41279;43.546;16.426;2022-11-25T01:28:32;52482.38;;;-146.77;74.78
55410;BME280;41279;43.546;16.426;2022-11-25T01:31:05;52490.41;;;-146.77;71.87
55410;BME280;41279;43.546;16.426;2022-11-25T01:33:32;52468.38;;;-146.77;71.25
55410;BME280;41279;43.546;16.426;2022-11-25T01:36:05;52454.34;;;-146.77;72.13
55410;BME280;41279;43.546;16.426;2022-11-25T01:38:31;52458.38;;;-146.77;75.12
55410;BME280;41279;43.546;16.426;2022-11-25T01:40:57;52460.38;;;-146.77;77.18
55410;BME280;41279;43.546;16.426;2022-11-25T01:43:23;52470.38;;;-146.77;77.15
55410;BME280;41279;43.546;16.426;2022-11-25T01:45:48;52438.34;;;-146.77;76.65
55410;BME280;41279;43.546;16.426;2022-11-25T01:48:37;52464.38;;;-146.77;77.08
55410;BME280;41279;43.546;16.426;2022-11-25T01:51:04;52444.34;;;-146.77;77.00
55410;BME280;41279;43.546;16.426;2022-11-25T01:53:32;52468.38;;;-146.77;74.49
55410;BME280;41279;43.546;16.426;2022-11-25T01:56:01;52480.38;;;-146.77;74.10
55410;BME280;41279;43.546;16.426;2022-11-25T01:58:30;52484.38;;;-146.77;72.95
55410;BME280;41279;43.546;16.426;2022-11-25T02:00:56;52466.38;;;-146.77;75.25
55410;BME280;41279;43.546;16.426;2022-11-25T02:03:26;52478.38;;;-146.77;75.93
55410;BME280;41279;43.546;16.426;2022-11-25T02:06:06;52442.34;;;-146.77;77.35
55410;BME280;41279;43.546;16.426;2022-11-25T02:08:34;52470.38;;;-146.77;76.51
55410;BME280;41279;43.546;16.426;2022-11-25T02:11:00;52498.41;;;-146.77;77.27
55410;BME280;41279;43.546;16.426;2022-11-25T02:13:29;52458.38;;;-146.77;77.08
55410;BME280;41279;43.546;16.426;2022-11-25T02:15:55;52462.38;;;-146.77;80.27
55410;BME280;41279;43.546;16.426;2022-11-25T02:18:20;52436.34;;;-146.77;80.42
55410;BME280;41279;43.546;16.426;2022-11-25T02:20:46;52476.38;;;-146.77;79.16
55410;BME280;41279;43.546;16.426;2022-11-25T02:23:32;52452.34;;;-146.77;76.86
55410;BME280;41279;43.546;16.426;2022-11-25T02:26:03;52434.34;;;-146.77;75.82
55410;BME280;41279;43.546;16.426;2022-11-25T02:28:30;52446.34;;;-146.77;75.95
55410;BME280;41279;43.546;16.426;2022-11-25T02:30:57;52458.38;;;-146.77;74.50
55410;BME280;41279;43.546;16.426;2022-11-25T02:33:23;52490.41;;;-146.77;74.68
55410;BME280;41279;43.546;16.426;2022-11-25T02:38:22;52478.38;;;-146.77;74.22
55410;BME280;41279;43.546;16.426;2022-11-25T02:40:54;52468.38;;;-146.77;75.07
55410;BME280;41279;43.546;16.426;2022-11-25T02:43:22;52468.38;;;-146.77;73.46
55410;BME280;41279;43.546;16.426;2022-11-25T02:45:57;52472.38;;;-146.77;72.44
55410;BME280;41279;43.546;16.426;2022-11-25T02:48:23;52478.38;;;-146.77;72.68
55410;BME280;41279;43.546;16.426;2022-11-25T02:50:49;52490.41;;;-146.77;72.33
55410;BME280;41279;43.546;16.426;2022-11-25T02:53:15;52458.38;;;-146.77;77.13
55410;BME280;41279;43.546;16.426;2022-11-25T02:55:40;52474.38;;;-146.77;80.65
55410;BME280;41279;43.546;16.426;2022-11-25T02:58:06;52454.34;;;-146.77;81.25
55410;BME280;41279;43.546;16.426;2022-11-25T03:00:32;52468.38;;;-146.77;81.53
55410;BME280;41279;43.546;16.426;2022-11-25T03:02:58;52464.38;;;-146.77;82.79
55410;BME280;41279;43.546;16.426;2022-11-25T03:05:23;52478.38;;;-146.77;82.13
55410;BME280;41279;43.546;16.426;2022-11-25T03:07:48;52460.38;;;-146.77;80.12
55410;BME280;41279;43.546;16.426;2022-11-25T03:10:14;52452.34;;;-146.77;81.23
55410;BME280;41279;43.546;16.426;2022-11-25T03:12:39;52482.38;;;-146.77;81.25
55410;BME280;41279;43.546;16.426;2022-11-25T03:15:05;52458.38;;;-146.77;81.95
55410;BME280;41279;43.546;16.426;2022-11-25T03:17:30;52452.34;;;-146.77;79.41
55410;BME280;41279;43.546;16.426;2022-11-25T03:19:56;52472.38;;;-146.77;80.49
55410;BME280;41279;43.546;16.426;2022-11-25T03:22:21;52458.38;;;-146.77;78.32
55410;BME280;41279;43.546;16.426;2022-11-25T03:24:47;52452.34;;;-146.77;76.38
55410;BME280;41279;43.546;16.426;2022-11-25T03:27:12;52462.38;;;-146.77;74.38
55410;BME280;41279;43.546;16.426;2022-11-25T03:29:37;52458.38;;;-146.77;74.58
55410;BME280;41279;43.546;16.426;2022-11-25T03:32:03;52446.34;;;-146.77;75.02
55410;BME280;41279;43.546;16.426;2022-11-25T03:34:28;52454.34;;;-146.77;75.23
55410;BME280;41279;43.546;16.426;2022-11-25T03:36:53;52418.31;;;-146.77;78.15
55410;BME280;41279;43.546;16.426;2022-11-25T03:39:19;52438.34;;;-146.77;76.57
55410;BME280;41279;43.546;16.426;2022-11-25T03:41:44;52470.38;;;-146.77;74.17
55410;BME280;41279;43.546;16.426;2022-11-25T03:44:09;52442.34;;;-146.77;71.37
55410;BME280;41279;43.546;16.426;2022-11-25T03:46:35;52456.38;;;-146.77;74.22
55410;BME280;41279;43.546;16.426;2022-11-25T03:49:00;52460.38;;;-146.77;75.92
55410;BME280;41279;43.546;16.426;2022-11-25T03:51:25;52474.38;;;-146.77;79.04
55410;BME280;41279;43.546;16.426;2022-11-25T03:53:51;52436.34;;;-146.77;83.08
55410;BME280;41279;43.546;16.426;2022-11-25T03:56:16;52472.38;;;-146.77;85.09
55410;BME280;41279;43.546;16.426;2022-11-25T03:58:41;52472.38;;;-146.77;84.57
55410;BME280;41279;43.546;16.426;2022-11-25T04:01:07;52468.38;;;-146.77;82.53
55410;BME280;41279;43.546;16.426;2022-11-25T04:03:32;52476.38;;;-146.77;81.72
55410;BME280;41279;43.546;16.426;2022-11-25T04:05:57;52486.41;;;-146.77;81.07
55410;BME280;41279;43.546;16.426;2022-11-25T04:08:23;52474.38;;;-146.77;81.83
55410;BME280;41279;43.546;16.426;2022-11-25T04:10:49;52444.34;;;-146.77;81.34
55410;BME280;41279;43.546;16.426;2022-11-25T04:13:14;52498.41;;;-146.77;78.85
55410;BME280;41279;43.546;16.426;2022-11-25T04:15:48;52478.38;;;-146.77;75.54
55410;BME280;41279;43.546;16.426;2022-11-25T04:18:14;52482.38;;;-146.77;74.03
55410;BME280;41279;43.546;16.426;2022-11-25T04:20:40;52478.38;;;-146.77;73.66
55410;BME280;41279;43.546;16.426;2022-11-25T04:23:06;52466.38;;;-146.77;73.02
55410;BME280;41279;43.546;16.426;2022-11-25T04:25:32;52486.41;;;-146.77;72.73
55410;BME280;41279;43.546;16.426;2022-11-25T04:27:58;52480.38;;;-146.77;76.22
55410;BME280;41279;43.546;16.426;2022-11-25T04:30:23;52458.38;;;-146.77;78.75
55410;BME280;41279;43.546;16.426;2022-11-25T04:32:49;52464.38;;;-146.77;77.79
55410;BME280;41279;43.546;16.426;2022-11-25T04:35:14;52468.38;;;-146.77;76.08
55410;BME280;41279;43.546;16.426;2022-11-25T04:37:40;52452.34;;;-146.77;76.78
55410;BME280;41279;43.546;16.426;2022-11-25T04:40:06;52474.38;;;-146.77;75.57
55410;BME280;41279;43.546;16.426;2022-11-25T04:42:31;52478.38;;;-146.77;72.65
55410;BME280;41279;43.546;16.426;2022-11-25T04:45:00;52476.38;;;-146.77;70.44
55410;BME280;41279;43.546;16.426;2022-11-25T04:47:27;52442.34;;;-146.77;70.62
55410;BME280;41279;43.546;16.426;2022-11-25T04:49:53;52426.34;;;-146.77;72.19
55410;BME280;41279;43.546;16.426;2022-11-25T04:52:18;52434.34;;;-146.77;72.82
55410;BME280;41279;43.546;16.426;2022-11-25T04:54:43;52450.34;;;-146.77;73.10
55410;BME280;41279;43.546;16.426;2022-11-25T04:57:12;52446.34;;;-146.77;72.36
55410;BME280;41279;43.546;16.426;2022-11-25T04:59:39;52452.34;;;-146.77;71.61
55410;BME280;41279;43.546;16.426;2022-11-25T05:02:06;52442.34;;;-146.77;72.29
55410;BME280;41279;43.546;16.426;2022-11-25T05:04:31;52464.38;;;-146.77;71.82
55410;BME280;41279;43.546;16.426;2022-11-25T05:06:57;52486.41;;;-146.77;72.76
55410;BME280;41279;43.546;16.426;2022-11-25T05:09:22;52452.34;;;-146.77;71.83
55410;BME280;41279;43.546;16.426;2022-11-25T05:11:47;52490.41;;;-146.77;72.65
55410;BME280;41279;43.546;16.426;2022-11-25T05:14:13;52468.38;;;-146.77;71.43
55410;BME280;41279;43.546;16.426;2022-11-25T05:16:39;52478.38;;;-146.77;72.03
55410;BME280;41279;43.546;16.426;2022-11-25T05:19:04;52478.38;;;-146.77;71.33
55410;BME280;41279;43.546;16.426;2022-11-25T05:21:29;52454.34;;;-146.77;70.84
55410;BME280;41279;43.546;16.426;2022-11-25T05:23:55;52462.38;;;-146.77;73.91
55410;BME280;41279;43.546;16.426;2022-11-25T05:26:20;52462.38;;;-146.77;81.34
55410;BME280;41279;43.546;16.426;2022-11-25T05:28:45;52482.38;;;-146.77;81.96
55410;BME280;41279;43.546;16.426;2022-11-25T05:31:11;52442.34;;;-146.77;80.38
55410;BME280;41279;43.546;16.426;2022-11-25T05:33:36;52448.34;;;-146.77;78.67
55410;BME280;41279;43.546;16.426;2022-11-25T05:36:02;52442.34;;;-146.77;79.47
55410;BME280;41279;43.546;16.426;2022-11-25T05:38:28;52442.34;;;-146.77;79.94
55410;BME280;41279;43.546;16.426;2022-11-25T05:41:00;52458.38;;;-146.77;80.38
55410;BME280;41279;43.546;16.426;2022-11-25T05:43:26;52470.38;;;-146.77;80.68
55410;BME280;41279;43.546;16.426;2022-11-25T05:45:51;52458.38;;;-146.77;78.74
55410;BME280;41279;43.546;16.426;2022-11-25T05:48:16;52458.38;;;-146.77;78.98
55410;BME280;41279;43.546;16.426;2022-11-25T05:50:42;52474.38;;;-146.77;78.40
55410;BME280;41279;43.546;16.426;2022-11-25T05:53:07;52484.38;;;-146.77;75.15
55410;BME280;41279;43.546;16.426;2022-11-25T05:55:33;52486.41;;;-146.77;72.37
55410;BME280;41279;43.546;16.426;2022-11-25T05:57:58;52462.38;;;-146.77;72.71
55410;BME280;41279;43.546;16.426;2022-11-25T06:00:25;52480.38;;;-146.77;73.74
55410;BME280;41279;43.546;16.426;2022-11-25T06:02:51;52464.38;;;-146.77;72.43
55410;BME280;41279;43.546;16.426;2022-11-25T06:05:16;52494.41;;;-146.77;69.80
55410;BME280;41279;43.546;16.426;2022-11-25T06:07:42;52414.31;;;-146.77;75.83
55410;BME280;41279;43.546;16.426;2022-11-25T06:10:07;52458.38;;;-146.77;74.46
55410;BME280;41279;43.546;16.426;2022-11-25T06:12:33;52460.38;;;-146.77;74.66
55410;BME280;41279;43.546;16.426;2022-11-25T06:14:58;52442.34;;;-146.77;74.66
55410;BME280;41279;43.546;16.426;2022-11-25T06:17:24;52458.38;;;-146.77;76.33
55410;BME280;41279;43.546;16.426;2022-11-25T06:19:49;52462.38;;;-146.77;76.36
55410;BME280;41279;43.546;16.426;2022-11-25T06:22:14;52450.34;;;-146.77;77.92
55410;BME280;41279;43.546;16.426;2022-11-25T06:24:47;52444.34;;;-146.77;78.85
55410;BME280;41279;43.546;16.426;2022-11-25T06:27:12;52454.34;;;-146.77;79.76
55410;BME280;41279;43.546;16.426;2022-11-25T06:29:37;52458.38;;;-146.77;80.44
55410;BME280;41279;43.546;16.426;2022-11-25T06:32:03;52460.38;;;-146.77;80.97
55410;BME280;41279;43.546;16.426;2022-11-25T06:34:28;52466.38;;;-146.77;83.74
55410;BME280;41279;43.546;16.426;2022-11-25T06:36:54;52410.31;;;-146.77;82.19
55410;BME280;41279;43.546;16.426;2022-11-25T06:39:19;52476.38;;;-146.77;74.75
55410;BME280;41279;43.546;16.426;2022-11-25T06:41:44;52492.41;;;-146.77;69.38
55410;BME280;41279;43.546;16.426;2022-11-25T06:44:11;52472.38;;;-146.77;70.02
55410;BME280;41279;43.546;16.426;2022-11-25T06:46:37;52494.41;;;-146.77;69.71
55410;BME280;41279;43.546;16.426;2022-11-25T06:49:02;52496.41;;;-146.77;67.67
55410;BME280;41279;43.546;16.426;2022-11-25T06:51:27;52496.41;;;-146.77;67.46
55410;BME280;41279;43.546;16.426;2022-11-25T06:53:53;52492.41;;;-146.77;68.24
55410;BME280;41279;43.546;16.426;2022-11-25T06:56:22;52530.44;;;-146.77;67.56
55410;BME280;41279;43.546;16.426;2022-11-25T06:58:48;52530.44;;;-146.77;65.92
55410;BME280;41279;43.546;16.426;2022-11-25T07:01:19;52570.47;;;-146.77;64.69
55410;BME280;41279;43.546;16.426;2022-11-25T07:03:46;52526.44;;;-146.77;67.22
55410;BME280;41279;43.546;16.426;2022-11-25T07:06:14;52534.44;;;-146.77;67.31
55410;BME280;41279;43.546;16.426;2022-11-25T07:08:40;52486.41;;;-146.77;69.70
55410;BME280;41279;43.546;16.426;2022-11-25T07:11:31;52514.41;;;-146.77;82.31
55410;BME280;41279;43.546;16.426;2022-11-25T07:13:59;52494.41;;;-146.77;83.44
55410;BME280;41279;43.546;16.426;2022-11-25T07:16:25;52546.47;;;-146.77;88.27
55410;BME280;41279;43.546;16.426;2022-11-25T07:18:59;52560.47;;;-146.77;75.18
55410;BME280;41279;43.546;16.426;2022-11-25T07:21:28;52486.41;;;-146.77;81.51
55410;BME280;41279;43.546;16.426;2022-11-25T07:24:03;52538.44;;;-146.77;73.25
55410;BME280;41279;43.546;16.426;2022-11-25T07:26:31;52520.44;;;-146.77;70.88
55410;BME280;41279;43.546;16.426;2022-11-25T07:28:59;52506.41;;;-146.77;67.40
55410;BME280;41279;43.546;16.426;2022-11-25T07:31:29;52510.41;;;-146.77;66.03
55410;BME280;41279;43.546;16.426;2022-11-25T07:34:00;52494.41;;;-146.77;68.28
55410;BME280;41279;43.546;16.426;2022-11-25T07:36:26;52470.38;;;-146.77;67.60
55410;BME280;41279;43.546;16.426;2022-11-25T07:38:51;52548.47;;;-146.77;63.33
55410;BME280;41279;43.546;16.426;2022-11-25T07:41:19;52554.47;;;-146.77;61.57
55410;BME280;41279;43.546;16.426;2022-11-25T07:43:48;52532.44;;;-146.77;63.37
55410;BME280;41279;43.546;16.426;2022-11-25T07:46:16;52590.50;;;-146.77;61.30
55410;BME280;41279;43.546;16.426;2022-11-25T07:48:43;52466.38;;;-146.77;65.05
55410;BME280;41279;43.546;16.426;2022-11-25T07:51:16;52474.38;;;-146.77;69.08
55410;BME280;41279;43.546;16.426;2022-11-25T07:53:42;52506.41;;;-146.77;67.02
55410;BME280;41279;43.546;16.426;2022-11-25T07:56:07;52510.41;;;-146.77;68.16
55410;BME280;41279;43.546;16.426;2022-11-25T07:58:33;52534.44;;;-146.77;66.89
55410;BME280;41279;43.546;16.426;2022-11-25T08:01:03;52486.41;;;-146.77;68.08
55410;BME280;41279;43.546;16.426;2022-11-25T08:03:31;52518.44;;;-146.77;63.83
55410;BME280;41279;43.546;16.426;2022-11-25T08:06:05;52554.47;;;-146.77;60.45
55410;BME280;41279;43.546;16.426;2022-11-25T08:08:31;52566.47;;;-146.77;59.77
55410;BME280;41279;43.546;16.426;2022-11-25T08:10:57;52562.47;;;-146.77;58.99
55410;BME280;41279;43.546;16.426;2022-11-25T08:13:22;52578.50;;;-146.77;58.12
55410;BME280;41279;43.546;16.426;2022-11-25T08:15:48;52576.50;;;-146.77;57.67
55410;BME280;41279;43.546;16.426;2022-11-25T08:18:13;52566.47;;;-146.77;56.25
55410;BME280;41279;43.546;16.426;2022-11-25T08:20:39;52572.47;;;-146.77;54.77
55410;BME280;41279;43.546;16.426;2022-11-25T08:23:04;52582.50;;;-146.77;55.43
55410;BME280;41279;43.546;16.426;2022-11-25T08:25:29;52574.47;;;-146.77;53.69
55410;BME280;41279;43.546;16.426;2022-11-25T08:27:58;52542.44;;;-146.77;53.69
55410;BME280;41279;43.546;16.426;2022-11-25T08:30:23;52548.47;;;-146.77;56.12
55410;BME280;41279;43.546;16.426;2022-11-25T08:32:50;52550.47;;;-146.77;55.98
55410;BME280;41279;43.546;16.426;2022-11-25T08:35:16;52568.47;;;-146.77;54.88
55410;BME280;41279;43.546;16.426;2022-11-25T08:37:41;52604.50;;;-146.77;54.51
55410;BME280;41279;43.546;16.426;2022-11-25T08:40:08;52558.47;;;-146.77;56.53
55410;BME280;41279;43.546;16.426;2022-11-25T08:42:35;52626.53;;;-146.77;56.37
55410;BME280;41279;43.546;16.426;2022-11-25T08:45:01;52578.50;;;-146.77;57.02
55410;BME280;41279;43.546;16.426;2022-11-25T08:47:26;52602.50;;;-146.77;56.78
55410;BME280;41279;43.546;16.426;2022-11-25T08:49:52;52532.44;;;-146.77;58.28
55410;BME280;41279;43.546;16.426;2022-11-25T08:52:19;52578.50;;;-146.77;55.36
55410;BME280;41279;43.546;16.426;2022-11-25T08:54:45;52588.50;;;-146.77;54.97
55410;BME280;41279;43.546;16.426;2022-11-25T08:57:11;52580.50;;;-146.77;56.48
55410;BME280;41279;43.546;16.426;2022-11-25T08:59:36;52522.44;;;-146.77;58.82
55410;BME280;41279;43.546;16.426;2022-11-25T09:02:04;52614.53;;;-146.77;58.02
55410;BME280;41279;43.546;16.426;2022-11-25T09:04:29;52584.50;;;-146.77;55.42
55410;BME280;41279;43.546;16.426;2022-11-25T09:06:55;52550.47;;;-146.77;55.38
55410;BME280;41279;43.546;16.426;2022-11-25T09:09:20;52506.41;;;-146.77;54.65
55410;BME280;41279;43.546;16.426;2022-11-25T09:11:46;52546.47;;;-146.77;54.54
55410;BME280;41279;43.546;16.426;2022-11-25T09:14:11;52526.44;;;-146.77;55.30
55410;BME280;41279;43.546;16.426;2022-11-25T09:16:36;52690.59;;;-146.77;49.72
55410;BME280;41279;43.546;16.426;2022-11-25T09:19:02;52524.44;;;-146.77;52.69
55410;BME280;41279;43.546;16.426;2022-11-25T09:21:28;52652.56;;;-146.77;49.26
55410;BME280;41279;43.546;16.426;2022-11-25T09:23:53;52554.47;;;-146.77;52.49
55410;BME280;41279;43.546;16.426;2022-11-25T09:26:25;52642.56;;;-146.77;48.16
55410;BME280;41279;43.546;16.426;2022-11-25T09:28:51;52614.53;;;-146.77;48.43
55410;BME280;41279;43.546;16.426;2022-11-25T09:31:17;52600.50;;;-146.77;48.91
55410;BME280;41279;43.546;16.426;2022-11-25T09:33:43;52544.44;;;-146.77;54.07
55410;BME280;41279;43.546;16.426;2022-11-25T09:36:11;52588.50;;;-146.77;58.84
55410;BME280;41279;43.546;16.426;2022-11-25T09:38:36;52578.50;;;-146.77;66.86
55410;BME280;41279;43.546;16.426;2022-11-25T09:44:21;52550.47;;;-146.77;68.54
55410;BME280;41279;43.546;16.426;2022-11-25T09:53:09;52564.47;;;-146.77;66.15
55410;BME280;41279;43.546;16.426;2022-11-25T09:55:44;52616.53;;;-146.77;58.51
55410;BME280;41279;43.546;16.426;2022-11-25T10:00:46;52638.56;;;-146.77;58.07
55410;BME280;41279;43.546;16.426;2022-11-25T10:03:38;52654.56;;;-146.77;49.08
55410;BME280;41279;43.546;16.426;2022-11-25T10:06:13;52554.47;;;-146.77;52.59
55410;BME280;41279;43.546;16.426;2022-11-25T10:08:48;52556.47;;;-146.77;52.74
55410;BME280;41279;43.546;16.426;2022-11-25T10:16:28;52548.47;;;-146.77;54.71
55410;BME280;41279;43.546;16.426;2022-11-25T10:19:00;52618.53;;;-146.77;56.36
55410;BME280;41279;43.546;16.426;2022-11-25T10:21:26;52600.50;;;-146.77;58.26
55410;BME280;41279;43.546;16.426;2022-11-25T10:23:52;52636.56;;;-146.77;54.88
55410;BME280;41279;43.546;16.426;2022-11-25T10:26:22;52568.47;;;-146.77;56.16
55410;BME280;41279;43.546;16.426;2022-11-25T10:29:05;52632.53;;;-146.77;51.92
55410;BME280;41279;43.546;16.426;2022-11-25T10:31:41;52604.50;;;-146.77;53.81
55410;BME280;41279;43.546;16.426;2022-11-25T10:36:41;52656.56;;;-146.77;51.71
55410;BME280;41279;43.546;16.426;2022-11-25T10:39:28;52596.50;;;-146.77;49.63
55410;BME280;41279;43.546;16.426;2022-11-25T10:44:27;52556.47;;;-146.77;51.73
55410;BME280;41279;43.546;16.426;2022-11-25T10:52:34;52616.53;;;-146.77;44.87
55410;BME280;41279;43.546;16.426;2022-11-25T10:55:14;52618.53;;;-146.77;45.91
55410;BME280;41279;43.546;16.426;2022-11-25T10:57:40;52676.59;;;-146.77;43.57
55410;BME280;41279;43.546;16.426;2022-11-25T11:00:23;52770.69;;;-146.77;43.45
55410;BME280;41279;43.546;16.426;2022-11-25T11:02:48;52786.72;;;-146.77;39.96
55410;BME280;41279;43.546;16.426;2022-11-25T11:05:22;52778.72;;;-146.77;42.17
55410;BME280;41279;43.546;16.426;2022-11-25T11:08:06;52798.72;;;-146.77;43.62
55410;BME280;41279;43.546;16.426;2022-11-25T11:10:32;52704.63;;;-146.77;45.45
55410;BME280;41279;43.546;16.426;2022-11-25T11:15:33;52776.69;;;-146.77;45.17
55410;BME280;41279;43.546;16.426;2022-11-25T11:18:22;52616.53;;;-146.77;47.96
55410;BME280;41279;43.546;16.426;2022-11-25T11:20:51;52614.53;;;-146.77;52.59
55410;BME280;41279;43.546;16.426;2022-11-25T11:23:17;52722.66;;;-146.77;53.51
55410;BME280;41279;43.546;16.426;2022-11-25T11:31:21;52846.78;;;-146.77;59.48
55410;BME280;41279;43.546;16.426;2022-11-25T11:45:15;52720.66;;;-146.77;56.38
55410;BME280;41279;43.546;16.426;2022-11-25T11:47:57;52722.66;;;-146.77;63.48
55410;BME280;41279;43.546;16.426;2022-11-25T11:50:46;52656.56;;;-146.77;60.26
55410;BME280;41279;43.546;16.426;2022-11-25T11:56:11;52726.66;;;-146.77;56.79
55410;BME280;41279;43.546;16.426;2022-11-25T12:07:31;52782.72;;;-146.77;65.28
55410;BME280;41279;43.546;16.426;2022-11-25T12:12:39;52746.66;;;-146.77;65.11
55410;BME280;41279;43.546;16.426;2022-11-25T12:15:38;52698.63;;;-146.77;65.85
55410;BME280;41279;43.546;16.426;2022-11-25T12:18:16;52704.63;;;-146.77;66.51
55410;BME280;41279;43.546;16.426;2022-11-25T12:20:49;52698.63;;;-146.77;65.68
55410;BME280;41279;43.546;16.426;2022-11-25T12:26:24;52700.63;;;-146.77;58.97
55410;BME280;41279;43.546;16.426;2022-11-25T12:29:08;52726.66;;;-146.77;56.10
55410;BME280;41279;43.546;16.426;2022-11-25T12:31:38;52714.63;;;-146.77;58.54
55410;BME280;41279;43.546;16.426;2022-11-25T12:34:15;52760.69;;;-146.77;55.71
55410;BME280;41279;43.546;16.426;2022-11-25T12:36:43;52768.69;;;-146.77;55.79
55410;BME280;41279;43.546;16.426;2022-11-25T12:41:58;52634.53;;;-146.77;58.55
55410;BME280;41279;43.546;16.426;2022-11-25T12:44:32;52718.63;;;-146.77;59.29
55410;BME280;41279;43.546;16.426;2022-11-25T12:46:59;52734.66;;;-146.77;57.77
55410;BME280;41279;43.546;16.426;2022-11-25T12:49:29;52718.63;;;-146.77;56.31
55410;BME280;41279;43.546;16.426;2022-11-25T13:06:02;52746.66;;;-146.77;68.62
55410;BME280;41279;43.546;16.426;2022-11-25T13:08:54;52734.66;;;-146.77;67.71
55410;BME280;41279;43.546;16.426;2022-11-25T13:16:44;52668.59;;;-146.77;65.59
55410;BME280;41279;43.546;16.426;2022-11-25T13:19:10;52740.66;;;-146.77;66.32
55410;BME280;41279;43.546;16.426;2022-11-25T13:22:00;52736.66;;;-146.77;69.38
55410;BME280;41279;43.546;16.426;2022-11-25T13:24:40;52638.56;;;-146.77;69.57
55410;BME280;41279;43.546;16.426;2022-11-25T13:27:32;52762.69;;;-146.77;71.14
55410;BME280;41279;43.546;16.426;2022-11-25T13:30:00;52678.59;;;-146.77;68.08
55410;BME280;41279;43.546;16.426;2022-11-25T13:32:34;52660.56;;;-146.77;65.13
55410;BME280;41279;43.546;16.426;2022-11-25T13:37:46;52692.63;;;-146.77;64.57
55410;BME280;41279;43.546;16.426;2022-11-25T13:40:37;52718.63;;;-146.77;62.78
55410;BME280;41279;43.546;16.426;2022-11-25T13:43:03;52698.63;;;-146.77;64.91
55410;BME280;41279;43.546;16.426;2022-11-25T13:45:33;52598.50;;;-146.77;70.92
55410;BME280;41279;43.546;16.426;2022-11-25T13:50:43;52606.53;;;-146.77;66.11
55410;BME280;41279;43.546;16.426;2022-11-25T13:53:22;52678.59;;;-146.77;64.48
55410;BME280;41279;43.546;16.426;2022-11-25T13:55:49;52646.56;;;-146.77;63.86
55410;BME280;41279;43.546;16.426;2022-11-25T13:58:19;52562.47;;;-146.77;67.15
55410;BME280;41279;43.546;16.426;2022-11-25T14:00:49;52590.50;;;-146.77;67.37
55410;BME280;41279;43.546;16.426;2022-11-25T14:12:11;52600.50;;;-146.77;63.77
55410;BME280;41279;43.546;16.426;2022-11-25T14:17:46;52668.59;;;-146.77;60.10
55410;BME280;41279;43.546;16.426;2022-11-25T14:20:38;52666.59;;;-146.77;62.39
55410;BME280;41279;43.546;16.426;2022-11-25T14:25:55;52612.53;;;-146.77;58.48
55410;BME280;41279;43.546;16.426;2022-11-25T14:28:38;52656.56;;;-146.77;58.07